sensor_id;sensor_type;location;lat;lon;timestamp;temperature;humidity
8002;DHT22;4046;48.774;8.732;2022-12-10T00:00:40;22.60;92.30
8002;DHT22;4046;48.774;8.732;2022-12-10T00:03:07;22.60;92.30
8002;DHT22;4046;48.774;8.732;2022-12-10T00:05:34;22.60;92.30
8002;DHT22;4046;48.774;8.732;2022-12-10T00:08:00;22.60;92.30
8002;DHT22;4046;48.774;8.732;2022-12-10T00:10:26;22.50;92.20
8002;DHT22;4046;48.774;8.732;2022-12-10T00:12:52;22.50;92.60
8002;DHT22;4046;48.774;8.732;2022-12-10T00:15:19;22.50;92.30
8002;DHT22;4046;48.774;8.732;2022-12-10T00:17:45;22.50;92.30
8002;DHT22;4046;48.774;8.732;2022-12-10T00:20:11;22.50;92.30
8002;DHT22;4046;48.774;8.732;2022-12-10T00:22:38;22.50;92.30
8002;DHT22;4046;48.774;8.732;2022-12-10T00:25:04;22.50;92.30
8002;DHT22;4046;48.774;8.732;2022-12-10T00:27:31;22.50;92.30
8002;DHT22;4046;48.774;8.732;2022-12-10T00:29:57;22.50;92.30
8002;DHT22;4046;48.774;8.732;2022-12-10T00:32:23;22.50;92.30
8002;DHT22;4046;48.774;8.732;2022-12-10T00:34:49;22.50;92.30
8002;DHT22;4046;48.774;8.732;2022-12-10T00:37:15;22.50;92.30
8002;DHT22;4046;48.774;8.732;2022-12-10T00:39:42;22.50;92.30
8002;DHT22;4046;48.774;8.732;2022-12-10T00:42:08;22.50;92.30
8002;DHT22;4046;48.774;8.732;2022-12-10T00:44:34;22.50;92.30
8002;DHT22;4046;48.774;8.732;2022-12-10T00:47:00;22.50;92.30
8002;DHT22;4046;48.774;8.732;2022-12-10T00:49:26;22.50;92.30
8002;DHT22;4046;48.774;8.732;2022-12-10T00:51:52;22.50;92.30
8002;DHT22;4046;48.774;8.732;2022-12-10T00:54:19;22.50;92.30
8002;DHT22;4046;48.774;8.732;2022-12-10T00:56:45;22.50;92.30
8002;DHT22;4046;48.774;8.732;2022-12-10T00:59:11;22.50;92.30
8002;DHT22;4046;48.774;8.732;2022-12-10T01:01:40;22.50;92.30
8002;DHT22;4046;48.774;8.732;2022-12-10T01:04:09;22.50;92.30
8002;DHT22;4046;48.774;8.732;2022-12-10T01:06:44;22.50;92.30
8002;DHT22;4046;48.774;8.732;2022-12-10T01:09:13;22.50;92.30
8002;DHT22;4046;48.774;8.732;2022-12-10T01:11:41;22.50;92.30
8002;DHT22;4046;48.774;8.732;2022-12-10T01:14:10;22.50;92.30
8002;DHT22;4046;48.774;8.732;2022-12-10T01:16:37;22.50;92.30
8002;DHT22;4046;48.774;8.732;2022-12-10T01:19:03;22.50;92.30
8002;DHT22;4046;48.774;8.732;2022-12-10T01:21:29;22.50;92.30
8002;DHT22;4046;48.774;8.732;2022-12-10T01:23:57;22.50;92.30
8002;DHT22;4046;48.774;8.732;2022-12-10T01:26:26;22.50;92.30
8002;DHT22;4046;48.774;8.732;2022-12-10T01:28:53;22.50;92.30
8002;DHT22;4046;48.774;8.732;2022-12-10T01:31:25;22.50;92.30
8002;DHT22;4046;48.774;8.732;2022-12-10T01:33:52;22.50;92.30
8002;DHT22;4046;48.774;8.732;2022-12-10T01:36:29;22.50;92.30
8002;DHT22;4046;48.774;8.732;2022-12-10T01:38:56;22.60;92.30
8002;DHT22;4046;48.774;8.732;2022-12-10T01:41:35;22.60;92.30
8002;DHT22;4046;48.774;8.732;2022-12-10T01:46:41;22.50;92.30
8002;DHT22;4046;48.774;8.732;2022-12-10T01:49:11;22.50;92.30
8002;DHT22;4046;48.774;8.732;2022-12-10T01:51:39;22.50;92.30
8002;DHT22;4046;48.774;8.732;2022-12-10T01:54:13;22.50;92.30
8002;DHT22;4046;48.774;8.732;2022-12-10T01:56:43;22.60;92.30
8002;DHT22;4046;48.774;8.732;2022-12-10T01:59:10;22.60;92.30
8002;DHT22;4046;48.774;8.732;2022-12-10T02:10:23;22.60;92.30
8002;DHT22;4046;48.774;8.732;2022-12-10T02:15:34;22.60;92.30
8002;DHT22;4046;48.774;8.732;2022-12-10T02:18:11;22.60;92.30
8002;DHT22;4046;48.774;8.732;2022-12-10T02:20:50;22.60;92.30
8002;DHT22;4046;48.774;8.732;2022-12-10T02:23:26;22.60;92.30
8002;DHT22;4046;48.774;8.732;2022-12-10T02:26:02;22.60;92.30
8002;DHT22;4046;48.774;8.732;2022-12-10T02:31:01;22.60;92.30
8002;DHT22;4046;48.774;8.732;2022-12-10T02:33:28;22.60;92.30
8002;DHT22;4046;48.774;8.732;2022-12-10T02:35:56;22.60;92.30
8002;DHT22;4046;48.774;8.732;2022-12-10T02:38:29;22.60;92.30
8002;DHT22;4046;48.774;8.732;2022-12-10T02:41:00;22.60;92.30
8002;DHT22;4046;48.774;8.732;2022-12-10T02:43:28;22.60;92.30
8002;DHT22;4046;48.774;8.732;2022-12-10T02:45:56;22.60;92.30
8002;DHT22;4046;48.774;8.732;2022-12-10T02:48:24;22.60;92.30
8002;DHT22;4046;48.774;8.732;2022-12-10T02:50:50;22.60;92.30
8002;DHT22;4046;48.774;8.732;2022-12-10T02:53:17;22.60;92.30
8002;DHT22;4046;48.774;8.732;2022-12-10T03:04:32;22.60;92.30
8002;DHT22;4046;48.774;8.732;2022-12-10T03:07:02;22.60;92.30
8002;DHT22;4046;48.774;8.732;2022-12-10T03:09:38;22.60;92.30
8002;DHT22;4046;48.774;8.732;2022-12-10T03:12:20;22.60;92.30
8002;DHT22;4046;48.774;8.732;2022-12-10T03:14:48;22.60;92.30
8002;DHT22;4046;48.774;8.732;2022-12-10T03:17:15;22.60;92.30
8002;DHT22;4046;48.774;8.732;2022-12-10T03:19:45;22.60;92.30
8002;DHT22;4046;48.774;8.732;2022-12-10T03:22:14;22.60;92.30
8002;DHT22;4046;48.774;8.732;2022-12-10T03:24:43;22.60;92.30
8002;DHT22;4046;48.774;8.732;2022-12-10T03:27:11;22.60;92.30
8002;DHT22;4046;48.774;8.732;2022-12-10T03:29:44;22.60;92.30
8002;DHT22;4046;48.774;8.732;2022-12-10T03:32:11;22.60;92.30
8002;DHT22;4046;48.774;8.732;2022-12-10T03:34:39;22.60;92.30
8002;DHT22;4046;48.774;8.732;2022-12-10T03:37:06;22.60;92.30
8002;DHT22;4046;48.774;8.732;2022-12-10T03:39:33;22.60;92.30
8002;DHT22;4046;48.774;8.732;2022-12-10T03:41:59;22.60;92.30
8002;DHT22;4046;48.774;8.732;2022-12-10T03:44:36;22.60;92.30
8002;DHT22;4046;48.774;8.732;2022-12-10T03:47:05;22.60;92.30
8002;DHT22;4046;48.774;8.732;2022-12-10T03:49:32;22.60;92.30
8002;DHT22;4046;48.774;8.732;2022-12-10T03:51:58;22.60;92.30
8002;DHT22;4046;48.774;8.732;2022-12-10T03:54:24;22.60;92.30
8002;DHT22;4046;48.774;8.732;2022-12-10T03:56:50;22.70;92.30
8002;DHT22;4046;48.774;8.732;2022-12-10T03:59:16;22.60;92.20
8002;DHT22;4046;48.774;8.732;2022-12-10T04:01:43;22.60;92.30
8002;DHT22;4046;48.774;8.732;2022-12-10T04:04:10;22.60;92.20
8002;DHT22;4046;48.774;8.732;2022-12-10T04:06:40;22.60;92.20
8002;DHT22;4046;48.774;8.732;2022-12-10T04:09:10;22.60;92.20
8002;DHT22;4046;48.774;8.732;2022-12-10T04:11:37;22.60;92.20
8002;DHT22;4046;48.774;8.732;2022-12-10T04:14:03;22.60;92.20
8002;DHT22;4046;48.774;8.732;2022-12-10T04:16:49;22.60;92.20
8002;DHT22;4046;48.774;8.732;2022-12-10T04:19:17;22.60;92.30
8002;DHT22;4046;48.774;8.732;2022-12-10T04:21:45;22.60;92.20
8002;DHT22;4046;48.774;8.732;2022-12-10T04:24:32;22.60;92.30
8002;DHT22;4046;48.774;8.732;2022-12-10T04:27:29;22.60;92.20
8002;DHT22;4046;48.774;8.732;2022-12-10T04:29:57;22.60;92.30
8002;DHT22;4046;48.774;8.732;2022-12-10T04:32:25;22.60;92.20
8002;DHT22;4046;48.774;8.732;2022-12-10T04:34:51;22.60;92.30
8002;DHT22;4046;48.774;8.732;2022-12-10T04:37:18;22.60;92.30
8002;DHT22;4046;48.774;8.732;2022-12-10T04:39:45;22.60;92.20
8002;DHT22;4046;48.774;8.732;2022-12-10T04:42:12;22.60;92.30
8002;DHT22;4046;48.774;8.732;2022-12-10T04:44:38;22.60;92.20
8002;DHT22;4046;48.774;8.732;2022-12-10T04:47:07;22.60;92.20
8002;DHT22;4046;48.774;8.732;2022-12-10T04:49:33;22.60;92.20
8002;DHT22;4046;48.774;8.732;2022-12-10T04:52:00;22.60;92.20
8002;DHT22;4046;48.774;8.732;2022-12-10T04:54:26;22.60;92.20
8002;DHT22;4046;48.774;8.732;2022-12-10T04:56:52;22.70;92.30
8002;DHT22;4046;48.774;8.732;2022-12-10T04:59:19;22.60;92.20
8002;DHT22;4046;48.774;8.732;2022-12-10T05:01:45;22.60;92.20
8002;DHT22;4046;48.774;8.732;2022-12-10T05:04:14;22.70;92.30
8002;DHT22;4046;48.774;8.732;2022-12-10T05:06:40;22.60;92.20
8002;DHT22;4046;48.774;8.732;2022-12-10T05:09:07;22.60;92.20
8002;DHT22;4046;48.774;8.732;2022-12-10T05:11:33;22.60;92.20
8002;DHT22;4046;48.774;8.732;2022-12-10T05:14:00;22.70;92.20
8002;DHT22;4046;48.774;8.732;2022-12-10T05:16:28;22.60;92.20
8002;DHT22;4046;48.774;8.732;2022-12-10T05:18:55;22.60;92.20
8002;DHT22;4046;48.774;8.732;2022-12-10T05:21:23;22.70;92.20
8002;DHT22;4046;48.774;8.732;2022-12-10T05:23:51;22.60;92.20
8002;DHT22;4046;48.774;8.732;2022-12-10T05:26:20;22.60;92.20
8002;DHT22;4046;48.774;8.732;2022-12-10T05:28:53;22.60;92.20
8002;DHT22;4046;48.774;8.732;2022-12-10T05:31:26;22.70;92.30
8002;DHT22;4046;48.774;8.732;2022-12-10T05:33:54;22.60;92.20
8002;DHT22;4046;48.774;8.732;2022-12-10T05:36:23;22.70;92.20
8002;DHT22;4046;48.774;8.732;2022-12-10T05:38:50;22.70;92.20
8002;DHT22;4046;48.774;8.732;2022-12-10T05:41:19;22.60;92.20
8002;DHT22;4046;48.774;8.732;2022-12-10T05:43:46;22.60;92.20
8002;DHT22;4046;48.774;8.732;2022-12-10T05:46:15;22.70;92.30
8002;DHT22;4046;48.774;8.732;2022-12-10T05:48:42;22.70;92.20
8002;DHT22;4046;48.774;8.732;2022-12-10T05:51:14;22.60;92.20
8002;DHT22;4046;48.774;8.732;2022-12-10T05:53:41;22.70;92.20
8002;DHT22;4046;48.774;8.732;2022-12-10T05:56:13;22.70;92.20
8002;DHT22;4046;48.774;8.732;2022-12-10T05:58:41;22.70;92.20
8002;DHT22;4046;48.774;8.732;2022-12-10T06:01:12;22.70;92.20
8002;DHT22;4046;48.774;8.732;2022-12-10T06:03:39;22.70;92.20
8002;DHT22;4046;48.774;8.732;2022-12-10T06:06:05;22.70;92.20
8002;DHT22;4046;48.774;8.732;2022-12-10T06:08:32;22.70;92.20
8002;DHT22;4046;48.774;8.732;2022-12-10T06:11:03;22.60;92.20
8002;DHT22;4046;48.774;8.732;2022-12-10T06:13:29;22.70;92.30
8002;DHT22;4046;48.774;8.732;2022-12-10T06:15:55;22.70;92.20
8002;DHT22;4046;48.774;8.732;2022-12-10T06:18:21;22.60;92.20
8002;DHT22;4046;48.774;8.732;2022-12-10T06:20:47;22.60;92.20
8002;DHT22;4046;48.774;8.732;2022-12-10T06:23:14;22.60;92.20
8002;DHT22;4046;48.774;8.732;2022-12-10T06:25:40;22.60;92.20
8002;DHT22;4046;48.774;8.732;2022-12-10T06:28:07;22.70;92.20
8002;DHT22;4046;48.774;8.732;2022-12-10T06:30:34;22.70;92.20
8002;DHT22;4046;48.774;8.732;2022-12-10T06:33:01;22.60;92.20
8002;DHT22;4046;48.774;8.732;2022-12-10T06:35:27;22.60;92.20
8002;DHT22;4046;48.774;8.732;2022-12-10T06:37:53;22.60;92.20
8002;DHT22;4046;48.774;8.732;2022-12-10T06:40:19;22.70;92.20
8002;DHT22;4046;48.774;8.732;2022-12-10T06:42:45;22.60;92.20
8002;DHT22;4046;48.774;8.732;2022-12-10T06:45:12;22.70;92.20
8002;DHT22;4046;48.774;8.732;2022-12-10T06:47:38;22.60;92.20
8002;DHT22;4046;48.774;8.732;2022-12-10T06:50:04;22.70;92.20
8002;DHT22;4046;48.774;8.732;2022-12-10T06:52:31;22.60;92.20
8002;DHT22;4046;48.774;8.732;2022-12-10T06:54:57;22.60;92.20
8002;DHT22;4046;48.774;8.732;2022-12-10T06:57:23;22.70;92.20
8002;DHT22;4046;48.774;8.732;2022-12-10T06:59:49;22.70;92.20
8002;DHT22;4046;48.774;8.732;2022-12-10T07:02:16;22.60;92.20
8002;DHT22;4046;48.774;8.732;2022-12-10T07:04:42;22.70;92.20
8002;DHT22;4046;48.774;8.732;2022-12-10T07:07:08;22.70;92.20
8002;DHT22;4046;48.774;8.732;2022-12-10T07:09:34;22.60;92.20
8002;DHT22;4046;48.774;8.732;2022-12-10T07:12:00;22.70;92.20
8002;DHT22;4046;48.774;8.732;2022-12-10T07:14:26;22.70;92.20
8002;DHT22;4046;48.774;8.732;2022-12-10T07:16:53;22.70;92.20
8002;DHT22;4046;48.774;8.732;2022-12-10T07:19:19;22.70;92.20
8002;DHT22;4046;48.774;8.732;2022-12-10T07:21:45;22.70;92.20
8002;DHT22;4046;48.774;8.732;2022-12-10T07:24:16;22.70;92.20
8002;DHT22;4046;48.774;8.732;2022-12-10T07:26:44;22.70;92.20
8002;DHT22;4046;48.774;8.732;2022-12-10T07:29:19;22.70;92.20
8002;DHT22;4046;48.774;8.732;2022-12-10T07:31:46;22.70;92.20
8002;DHT22;4046;48.774;8.732;2022-12-10T07:34:14;22.70;92.20
8002;DHT22;4046;48.774;8.732;2022-12-10T07:36:41;22.70;92.20
8002;DHT22;4046;48.774;8.732;2022-12-10T07:39:09;22.70;92.20
8002;DHT22;4046;48.774;8.732;2022-12-10T07:41:35;22.70;92.20
8002;DHT22;4046;48.774;8.732;2022-12-10T07:44:04;22.70;92.60
8002;DHT22;4046;48.774;8.732;2022-12-10T07:46:33;22.60;92.20
8002;DHT22;4046;48.774;8.732;2022-12-10T07:49:00;22.60;92.10
8002;DHT22;4046;48.774;8.732;2022-12-10T07:51:27;22.60;92.20
8002;DHT22;4046;48.774;8.732;2022-12-10T07:53:54;22.60;92.20
8002;DHT22;4046;48.774;8.732;2022-12-10T07:56:22;22.50;92.10
8002;DHT22;4046;48.774;8.732;2022-12-10T07:58:49;22.50;92.20
8002;DHT22;4046;48.774;8.732;2022-12-10T08:01:18;22.40;92.10
8002;DHT22;4046;48.774;8.732;2022-12-10T08:03:44;22.40;92.20
8002;DHT22;4046;48.774;8.732;2022-12-10T08:06:16;22.40;92.20
8002;DHT22;4046;48.774;8.732;2022-12-10T08:08:43;22.30;92.20
8002;DHT22;4046;48.774;8.732;2022-12-10T08:11:11;22.30;92.20
8002;DHT22;4046;48.774;8.732;2022-12-10T08:13:37;22.30;92.20
8002;DHT22;4046;48.774;8.732;2022-12-10T08:16:23;22.30;92.20
8002;DHT22;4046;48.774;8.732;2022-12-10T08:18:51;22.30;92.20
8002;DHT22;4046;48.774;8.732;2022-12-10T08:21:20;22.20;92.10
8002;DHT22;4046;48.774;8.732;2022-12-10T08:23:46;22.20;92.10
8002;DHT22;4046;48.774;8.732;2022-12-10T08:26:15;22.20;92.10
8002;DHT22;4046;48.774;8.732;2022-12-10T08:28:42;22.20;92.10
8002;DHT22;4046;48.774;8.732;2022-12-10T08:31:10;22.20;92.20
8002;DHT22;4046;48.774;8.732;2022-12-10T08:33:38;22.20;92.20
8002;DHT22;4046;48.774;8.732;2022-12-10T08:36:06;22.10;92.10
8002;DHT22;4046;48.774;8.732;2022-12-10T08:38:33;22.10;92.10
8002;DHT22;4046;48.774;8.732;2022-12-10T08:41:04;22.10;92.10
8002;DHT22;4046;48.774;8.732;2022-12-10T08:43:31;22.10;92.10
8002;DHT22;4046;48.774;8.732;2022-12-10T08:46:00;22.10;92.10
8002;DHT22;4046;48.774;8.732;2022-12-10T08:48:26;22.10;92.10
8002;DHT22;4046;48.774;8.732;2022-12-10T08:50:52;22.10;92.10
8002;DHT22;4046;48.774;8.732;2022-12-10T08:53:19;22.00;92.10
8002;DHT22;4046;48.774;8.732;2022-12-10T08:55:45;22.00;92.10
8002;DHT22;4046;48.774;8.732;2022-12-10T08:58:11;22.00;92.10
8002;DHT22;4046;48.774;8.732;2022-12-10T09:00:37;22.00;92.10
8002;DHT22;4046;48.774;8.732;2022-12-10T09:03:04;22.00;92.10
8002;DHT22;4046;48.774;8.732;2022-12-10T09:05:30;22.00;92.10
8002;DHT22;4046;48.774;8.732;2022-12-10T09:07:56;22.00;92.10
8002;DHT22;4046;48.774;8.732;2022-12-10T09:10:22;22.00;92.10
8002;DHT22;4046;48.774;8.732;2022-12-10T09:12:48;22.00;92.10
8002;DHT22;4046;48.774;8.732;2022-12-10T09:15:15;22.00;92.10
8002;DHT22;4046;48.774;8.732;2022-12-10T09:17:41;21.90;92.10
8002;DHT22;4046;48.774;8.732;2022-12-10T09:20:07;21.90;92.10
8002;DHT22;4046;48.774;8.732;2022-12-10T09:22:33;21.90;92.10
8002;DHT22;4046;48.774;8.732;2022-12-10T09:25:04;21.90;92.10
8002;DHT22;4046;48.774;8.732;2022-12-10T09:27:31;21.90;92.10
8002;DHT22;4046;48.774;8.732;2022-12-10T09:29:58;21.90;92.10
8002;DHT22;4046;48.774;8.732;2022-12-10T09:32:24;21.90;92.10
8002;DHT22;4046;48.774;8.732;2022-12-10T09:34:51;21.90;92.10
8002;DHT22;4046;48.774;8.732;2022-12-10T09:37:18;21.90;92.10
8002;DHT22;4046;48.774;8.732;2022-12-10T09:39:44;21.90;92.10
8002;DHT22;4046;48.774;8.732;2022-12-10T09:45:20;21.90;92.10
8002;DHT22;4046;48.774;8.732;2022-12-10T09:48:07;21.90;92.10
8002;DHT22;4046;48.774;8.732;2022-12-10T09:50:45;21.80;92.00
8002;DHT22;4046;48.774;8.732;2022-12-10T09:53:17;21.80;92.00
8002;DHT22;4046;48.774;8.732;2022-12-10T09:55:46;21.80;92.00
8002;DHT22;4046;48.774;8.732;2022-12-10T09:58:17;21.80;92.00
8002;DHT22;4046;48.774;8.732;2022-12-10T10:00:46;21.80;92.00
8002;DHT22;4046;48.774;8.732;2022-12-10T10:03:15;21.80;92.00
8002;DHT22;4046;48.774;8.732;2022-12-10T10:05:44;21.80;92.00
8002;DHT22;4046;48.774;8.732;2022-12-10T10:10:49;21.80;92.00
8002;DHT22;4046;48.774;8.732;2022-12-10T10:13:36;21.80;92.00
8002;DHT22;4046;48.774;8.732;2022-12-10T10:16:26;21.80;92.00
8002;DHT22;4046;48.774;8.732;2022-12-10T10:19:02;21.80;92.00
8002;DHT22;4046;48.774;8.732;2022-12-10T10:21:34;21.80;92.00
8002;DHT22;4046;48.774;8.732;2022-12-10T10:24:02;21.80;92.00
8002;DHT22;4046;48.774;8.732;2022-12-10T10:26:29;21.80;92.00
8002;DHT22;4046;48.774;8.732;2022-12-10T10:28:58;21.80;92.00
8002;DHT22;4046;48.774;8.732;2022-12-10T10:31:28;21.80;92.00
8002;DHT22;4046;48.774;8.732;2022-12-10T10:33:57;21.80;92.00
8002;DHT22;4046;48.774;8.732;2022-12-10T10:36:26;21.80;92.00
8002;DHT22;4046;48.774;8.732;2022-12-10T10:38:53;21.80;92.00
8002;DHT22;4046;48.774;8.732;2022-12-10T10:41:20;21.80;92.00
8002;DHT22;4046;48.774;8.732;2022-12-10T10:43:46;21.80;92.00
8002;DHT22;4046;48.774;8.732;2022-12-10T10:46:17;21.80;92.00
8002;DHT22;4046;48.774;8.732;2022-12-10T10:48:46;21.80;92.00
8002;DHT22;4046;48.774;8.732;2022-12-10T10:58:36;21.80;91.90
8002;DHT22;4046;48.774;8.732;2022-12-10T11:01:10;21.80;91.90
8002;DHT22;4046;48.774;8.732;2022-12-10T11:03:37;21.80;91.90
8002;DHT22;4046;48.774;8.732;2022-12-10T11:06:12;21.80;92.00
8002;DHT22;4046;48.774;8.732;2022-12-10T11:08:39;21.80;91.90
8002;DHT22;4046;48.774;8.732;2022-12-10T11:11:14;21.80;91.90
8002;DHT22;4046;48.774;8.732;2022-12-10T11:13:42;21.80;91.90
8002;DHT22;4046;48.774;8.732;2022-12-10T11:18:43;21.70;91.90
8002;DHT22;4046;48.774;8.732;2022-12-10T11:21:19;21.70;91.90
8002;DHT22;4046;48.774;8.732;2022-12-10T11:23:52;21.70;91.90
8002;DHT22;4046;48.774;8.732;2022-12-10T11:32:05;21.70;91.90
8002;DHT22;4046;48.774;8.732;2022-12-10T11:34:39;21.70;91.90
8002;DHT22;4046;48.774;8.732;2022-12-10T11:37:25;21.70;91.90
8002;DHT22;4046;48.774;8.732;2022-12-10T11:40:34;21.70;91.90
8002;DHT22;4046;48.774;8.732;2022-12-10T11:43:41;21.70;91.90
8002;DHT22;4046;48.774;8.732;2022-12-10T11:46:25;21.70;91.90
8002;DHT22;4046;48.774;8.732;2022-12-10T11:59:56;21.60;91.80
8002;DHT22;4046;48.774;8.732;2022-12-10T12:02:47;21.70;91.90
8002;DHT22;4046;48.774;8.732;2022-12-10T12:08:19;21.60;91.80
8002;DHT22;4046;48.774;8.732;2022-12-10T12:16:37;21.60;91.80
8002;DHT22;4046;48.774;8.732;2022-12-10T12:19:14;21.60;91.80
8002;DHT22;4046;48.774;8.732;2022-12-10T12:21:43;21.60;91.80
8002;DHT22;4046;48.774;8.732;2022-12-10T12:24:24;21.60;92.00
8002;DHT22;4046;48.774;8.732;2022-12-10T12:26:57;21.60;91.90
8002;DHT22;4046;48.774;8.732;2022-12-10T12:30:15;21.60;91.90
8002;DHT22;4046;48.774;8.732;2022-12-10T12:35:44;21.60;91.90
8002;DHT22;4046;48.774;8.732;2022-12-10T12:41:05;21.60;91.90
8002;DHT22;4046;48.774;8.732;2022-12-10T12:46:04;21.60;91.80
8002;DHT22;4046;48.774;8.732;2022-12-10T12:51:54;21.60;91.90
8002;DHT22;4046;48.774;8.732;2022-12-10T12:54:22;21.50;91.80
8002;DHT22;4046;48.774;8.732;2022-12-10T12:59:50;21.50;91.80
8002;DHT22;4046;48.774;8.732;2022-12-10T13:04:45;21.50;91.80
8002;DHT22;4046;48.774;8.732;2022-12-10T13:12:47;21.50;91.90
8002;DHT22;4046;48.774;8.732;2022-12-10T13:15:32;21.50;91.90
8002;DHT22;4046;48.774;8.732;2022-12-10T13:31:16;21.60;91.90
8002;DHT22;4046;48.774;8.732;2022-12-10T13:39:34;21.60;91.80
8002;DHT22;4046;48.774;8.732;2022-12-10T13:45:04;21.60;91.80
8002;DHT22;4046;48.774;8.732;2022-12-10T13:47:45;21.60;91.80
8002;DHT22;4046;48.774;8.732;2022-12-10T13:50:24;21.70;91.90
8002;DHT22;4046;48.774;8.732;2022-12-10T13:58:26;21.70;91.80
8002;DHT22;4046;48.774;8.732;2022-12-10T14:00:58;21.70;91.80
8002;DHT22;4046;48.774;8.732;2022-12-10T14:06:24;21.70;91.80
8002;DHT22;4046;48.774;8.732;2022-12-10T14:08:55;21.70;91.80
8002;DHT22;4046;48.774;8.732;2022-12-10T14:11:29;21.60;91.80
8002;DHT22;4046;48.774;8.732;2022-12-10T14:13:58;21.60;92.20
8002;DHT22;4046;48.774;8.732;2022-12-10T14:16:31;21.60;91.80
8002;DHT22;4046;48.774;8.732;2022-12-10T14:19:00;21.60;91.80
8002;DHT22;4046;48.774;8.732;2022-12-10T14:21:32;21.60;91.80
8002;DHT22;4046;48.774;8.732;2022-12-10T14:23:59;21.60;91.80
8002;DHT22;4046;48.774;8.732;2022-12-10T14:26:31;21.60;91.80
8002;DHT22;4046;48.774;8.732;2022-12-10T14:29:00;21.60;91.80
8002;DHT22;4046;48.774;8.732;2022-12-10T14:31:44;21.60;91.80
8002;DHT22;4046;48.774;8.732;2022-12-10T14:34:14;21.60;91.80
8002;DHT22;4046;48.774;8.732;2022-12-10T14:36:46;21.50;91.80
8002;DHT22;4046;48.774;8.732;2022-12-10T14:39:21;21.50;91.80
8002;DHT22;4046;48.774;8.732;2022-12-10T14:41:52;21.50;91.90
8002;DHT22;4046;48.774;8.732;2022-12-10T14:44:19;21.50;91.80
8002;DHT22;4046;48.774;8.732;2022-12-10T14:46:49;21.50;91.80
8002;DHT22;4046;48.774;8.732;2022-12-10T14:49:19;21.50;91.90
8002;DHT22;4046;48.774;8.732;2022-12-10T14:51:46;21.50;91.80
8002;DHT22;4046;48.774;8.732;2022-12-10T14:54:33;21.50;91.90
8002;DHT22;4046;48.774;8.732;2022-12-10T14:57:13;21.50;91.90
8002;DHT22;4046;48.774;8.732;2022-12-10T15:02:38;21.40;91.80
8002;DHT22;4046;48.774;8.732;2022-12-10T15:05:21;21.40;91.80
8002;DHT22;4046;48.774;8.732;2022-12-10T15:08:05;21.40;91.80
8002;DHT22;4046;48.774;8.732;2022-12-10T15:10:34;21.40;91.90
8002;DHT22;4046;48.774;8.732;2022-12-10T15:13:01;21.40;91.90
8002;DHT22;4046;48.774;8.732;2022-12-10T15:15:30;21.40;91.90
8002;DHT22;4046;48.774;8.732;2022-12-10T15:20:50;21.40;91.90
8002;DHT22;4046;48.774;8.732;2022-12-10T15:23:26;21.40;91.90
8002;DHT22;4046;48.774;8.732;2022-12-10T15:28:39;21.40;91.90
8002;DHT22;4046;48.774;8.732;2022-12-10T15:34:29;21.40;91.90
8002;DHT22;4046;48.774;8.732;2022-12-10T15:36:51;21.40;91.90
8002;DHT22;4046;48.774;8.732;2022-12-10T15:39:27;21.30;92.00
8002;DHT22;4046;48.774;8.732;2022-12-10T15:41:59;21.30;92.10
8002;DHT22;4046;48.774;8.732;2022-12-10T15:47:19;21.40;92.20
8002;DHT22;4046;48.774;8.732;2022-12-10T15:49:46;21.40;92.50
8002;DHT22;4046;48.774;8.732;2022-12-10T15:52:15;21.50;92.30
8002;DHT22;4046;48.774;8.732;2022-12-10T15:54:43;21.50;92.20
8002;DHT22;4046;48.774;8.732;2022-12-10T15:57:17;21.50;92.20
8002;DHT22;4046;48.774;8.732;2022-12-10T15:59:46;21.60;92.20
8002;DHT22;4046;48.774;8.732;2022-12-10T16:02:59;21.60;92.20
8002;DHT22;4046;48.774;8.732;2022-12-10T16:07:42;21.70;92.10
8002;DHT22;4046;48.774;8.732;2022-12-10T16:10:10;21.70;92.10
8002;DHT22;4046;48.774;8.732;2022-12-10T16:12:37;21.70;92.10
8002;DHT22;4046;48.774;8.732;2022-12-10T16:15:06;21.80;92.10
8002;DHT22;4046;48.774;8.732;2022-12-10T16:17:33;21.80;92.10
8002;DHT22;4046;48.774;8.732;2022-12-10T16:20:13;21.80;92.10
8002;DHT22;4046;48.774;8.732;2022-12-10T16:22:42;21.80;92.10
8002;DHT22;4046;48.774;8.732;2022-12-10T16:25:09;21.80;92.00
8002;DHT22;4046;48.774;8.732;2022-12-10T16:27:35;21.80;92.00
8002;DHT22;4046;48.774;8.732;2022-12-10T16:30:14;21.90;92.10
8002;DHT22;4046;48.774;8.732;2022-12-10T16:32:41;21.90;92.10
8002;DHT22;4046;48.774;8.732;2022-12-10T16:35:08;21.90;92.00
8002;DHT22;4046;48.774;8.732;2022-12-10T16:37:34;21.90;92.00
8002;DHT22;4046;48.774;8.732;2022-12-10T16:40:01;21.90;92.00
8002;DHT22;4046;48.774;8.732;2022-12-10T16:42:27;21.90;92.00
8002;DHT22;4046;48.774;8.732;2022-12-10T16:44:55;21.90;92.00
8002;DHT22;4046;48.774;8.732;2022-12-10T16:47:21;22.00;92.00
8002;DHT22;4046;48.774;8.732;2022-12-10T16:49:47;22.00;92.00
8002;DHT22;4046;48.774;8.732;2022-12-10T16:52:14;22.00;92.10
8002;DHT22;4046;48.774;8.732;2022-12-10T16:54:41;22.00;92.00
8002;DHT22;4046;48.774;8.732;2022-12-10T16:57:16;22.00;92.00
8002;DHT22;4046;48.774;8.732;2022-12-10T16:59:42;22.00;92.00
8002;DHT22;4046;48.774;8.732;2022-12-10T17:02:16;22.00;92.00
8002;DHT22;4046;48.774;8.732;2022-12-10T17:04:43;22.00;92.00
8002;DHT22;4046;48.774;8.732;2022-12-10T17:07:10;22.00;92.00
8002;DHT22;4046;48.774;8.732;2022-12-10T17:09:37;22.00;92.00
8002;DHT22;4046;48.774;8.732;2022-12-10T17:12:05;22.00;92.00
8002;DHT22;4046;48.774;8.732;2022-12-10T17:14:42;22.00;92.00
8002;DHT22;4046;48.774;8.732;2022-12-10T17:17:15;22.10;92.00
8002;DHT22;4046;48.774;8.732;2022-12-10T17:19:42;22.10;92.00
8002;DHT22;4046;48.774;8.732;2022-12-10T17:22:09;22.10;92.00
8002;DHT22;4046;48.774;8.732;2022-12-10T17:24:36;22.10;92.00
8002;DHT22;4046;48.774;8.732;2022-12-10T17:27:20;22.10;92.00
8002;DHT22;4046;48.774;8.732;2022-12-10T17:29:47;22.10;92.00
8002;DHT22;4046;48.774;8.732;2022-12-10T17:32:20;22.10;92.00
8002;DHT22;4046;48.774;8.732;2022-12-10T17:34:47;22.10;92.00
8002;DHT22;4046;48.774;8.732;2022-12-10T17:37:16;22.10;92.00
8002;DHT22;4046;48.774;8.732;2022-12-10T17:39:44;22.10;92.00
8002;DHT22;4046;48.774;8.732;2022-12-10T17:42:10;22.10;92.00
8002;DHT22;4046;48.774;8.732;2022-12-10T17:44:37;22.10;92.00
8002;DHT22;4046;48.774;8.732;2022-12-10T17:47:19;22.10;92.00
8002;DHT22;4046;48.774;8.732;2022-12-10T17:49:46;22.10;91.90
8002;DHT22;4046;48.774;8.732;2022-12-10T17:52:12;22.10;91.90
8002;DHT22;4046;48.774;8.732;2022-12-10T17:54:39;22.10;91.90
8002;DHT22;4046;48.774;8.732;2022-12-10T17:57:11;22.20;92.00
8002;DHT22;4046;48.774;8.732;2022-12-10T17:59:39;22.20;92.00
8002;DHT22;4046;48.774;8.732;2022-12-10T18:02:11;22.20;92.00
8002;DHT22;4046;48.774;8.732;2022-12-10T18:04:38;22.20;92.00
8002;DHT22;4046;48.774;8.732;2022-12-10T18:07:14;22.20;92.00
8002;DHT22;4046;48.774;8.732;2022-12-10T18:09:41;22.20;91.90
8002;DHT22;4046;48.774;8.732;2022-12-10T18:12:08;22.20;92.00
8002;DHT22;4046;48.774;8.732;2022-12-10T18:14:35;22.20;92.00
8002;DHT22;4046;48.774;8.732;2022-12-10T18:17:02;22.20;92.00
8002;DHT22;4046;48.774;8.732;2022-12-10T18:19:29;22.20;91.90
8002;DHT22;4046;48.774;8.732;2022-12-10T18:21:55;22.20;92.00
8002;DHT22;4046;48.774;8.732;2022-12-10T18:24:21;22.20;92.00
8002;DHT22;4046;48.774;8.732;2022-12-10T18:26:48;22.20;91.90
8002;DHT22;4046;48.774;8.732;2022-12-10T18:29:14;22.20;91.90
8002;DHT22;4046;48.774;8.732;2022-12-10T18:31:42;22.20;92.00
8002;DHT22;4046;48.774;8.732;2022-12-10T18:34:11;22.20;91.90